sensor_id;sensor_type;location;lat;lon;timestamp;P1;durP1;ratioP1;P2;durP2;ratioP2
24585;SDS011;12743;52.262;6.172;2023-04-06T00:02:06;11.63;;;5.30;;
24585;SDS011;12743;52.262;6.172;2023-04-06T00:04:33;12.48;;;5.25;;
24585;SDS011;12743;52.262;6.172;2023-04-06T00:06:59;10.80;;;5.50;;
24585;SDS011;12743;52.262;6.172;2023-04-06T00:09:26;13.65;;;5.35;;
24585;SDS011;12743;52.262;6.172;2023-04-06T00:11:52;12.87;;;5.70;;
24585;SDS011;12743;52.262;6.172;2023-04-06T00:14:19;11.13;;;5.47;;
24585;SDS011;12743;52.262;6.172;2023-04-06T00:16:46;12.43;;;5.78;;
24585;SDS011;12743;52.262;6.172;2023-04-06T00:19:13;9.90;;;5.20;;
24585;SDS011;12743;52.262;6.172;2023-04-06T00:21:39;9.75;;;4.90;;
24585;SDS011;12743;52.262;6.172;2023-04-06T00:24:06;11.47;;;5.20;;
24585;SDS011;12743;52.262;6.172;2023-04-06T00:26:32;10.75;;;5.40;;
24585;SDS011;12743;52.262;6.172;2023-04-06T00:28:59;11.40;;;5.22;;
24585;SDS011;12743;52.262;6.172;2023-04-06T00:31:25;12.30;;;5.53;;
24585;SDS011;12743;52.262;6.172;2023-04-06T00:33:52;10.70;;;5.25;;
24585;SDS011;12743;52.262;6.172;2023-04-06T00:36:19;11.17;;;5.67;;
24585;SDS011;12743;52.262;6.172;2023-04-06T00:38:45;10.63;;;5.57;;
24585;SDS011;12743;52.262;6.172;2023-04-06T00:41:12;12.00;;;5.82;;
24585;SDS011;12743;52.262;6.172;2023-04-06T00:43:38;10.60;;;5.40;;
24585;SDS011;12743;52.262;6.172;2023-04-06T00:46:05;10.95;;;5.68;;
24585;SDS011;12743;52.262;6.172;2023-04-06T00:48:32;11.90;;;5.90;;
24585;SDS011;12743;52.262;6.172;2023-04-06T00:51:00;13.48;;;5.60;;
24585;SDS011;12743;52.262;6.172;2023-04-06T00:53:27;11.07;;;5.38;;
24585;SDS011;12743;52.262;6.172;2023-04-06T00:55:55;12.15;;;5.40;;
24585;SDS011;12743;52.262;6.172;2023-04-06T00:58:21;11.27;;;5.32;;
24585;SDS011;12743;52.262;6.172;2023-04-06T01:00:54;10.27;;;4.93;;
24585;SDS011;12743;52.262;6.172;2023-04-06T01:03:22;13.50;;;5.63;;
24585;SDS011;12743;52.262;6.172;2023-04-06T01:05:48;11.05;;;5.18;;
24585;SDS011;12743;52.262;6.172;2023-04-06T01:08:20;11.35;;;5.15;;
24585;SDS011;12743;52.262;6.172;2023-04-06T01:10:49;11.73;;;5.13;;
24585;SDS011;12743;52.262;6.172;2023-04-06T01:13:24;11.77;;;5.27;;
24585;SDS011;12743;52.262;6.172;2023-04-06T01:15:58;11.35;;;5.25;;
24585;SDS011;12743;52.262;6.172;2023-04-06T01:18:42;13.27;;;6.32;;
24585;SDS011;12743;52.262;6.172;2023-04-06T01:21:14;11.93;;;5.43;;
24585;SDS011;12743;52.262;6.172;2023-04-06T01:23:59;11.82;;;5.32;;
24585;SDS011;12743;52.262;6.172;2023-04-06T01:26:33;11.93;;;5.77;;
24585;SDS011;12743;52.262;6.172;2023-04-06T01:29:05;11.95;;;5.70;;
24585;SDS011;12743;52.262;6.172;2023-04-06T01:31:32;12.20;;;5.82;;
24585;SDS011;12743;52.262;6.172;2023-04-06T01:33:59;11.23;;;5.63;;
24585;SDS011;12743;52.262;6.172;2023-04-06T01:36:26;14.40;;;6.28;;
24585;SDS011;12743;52.262;6.172;2023-04-06T01:39:11;11.17;;;5.37;;
24585;SDS011;12743;52.262;6.172;2023-04-06T01:41:39;11.13;;;5.47;;
24585;SDS011;12743;52.262;6.172;2023-04-06T01:44:05;13.07;;;6.10;;
24585;SDS011;12743;52.262;6.172;2023-04-06T01:46:32;13.43;;;5.90;;
24585;SDS011;12743;52.262;6.172;2023-04-06T01:49:01;11.85;;;5.10;;
24585;SDS011;12743;52.262;6.172;2023-04-06T01:51:36;12.10;;;5.83;;
24585;SDS011;12743;52.262;6.172;2023-04-06T01:54:05;11.73;;;5.57;;
24585;SDS011;12743;52.262;6.172;2023-04-06T01:56:58;12.80;;;5.82;;
24585;SDS011;12743;52.262;6.172;2023-04-06T01:59:44;11.63;;;5.78;;
24585;SDS011;12743;52.262;6.172;2023-04-06T02:02:20;13.38;;;6.35;;
24585;SDS011;12743;52.262;6.172;2023-04-06T02:04:57;11.37;;;6.00;;
24585;SDS011;12743;52.262;6.172;2023-04-06T02:07:24;11.82;;;5.88;;
24585;SDS011;12743;52.262;6.172;2023-04-06T02:09:54;12.30;;;6.00;;
24585;SDS011;12743;52.262;6.172;2023-04-06T02:12:28;11.13;;;5.57;;
24585;SDS011;12743;52.262;6.172;2023-04-06T02:14:55;12.73;;;5.55;;
24585;SDS011;12743;52.262;6.172;2023-04-06T02:17:21;13.90;;;6.70;;
24585;SDS011;12743;52.262;6.172;2023-04-06T02:19:48;11.13;;;5.90;;
24585;SDS011;12743;52.262;6.172;2023-04-06T02:22:14;12.43;;;6.40;;
24585;SDS011;12743;52.262;6.172;2023-04-06T02:24:41;11.82;;;5.47;;
24585;SDS011;12743;52.262;6.172;2023-04-06T02:27:07;11.52;;;5.90;;
24585;SDS011;12743;52.262;6.172;2023-04-06T02:29:34;10.47;;;5.60;;
24585;SDS011;12743;52.262;6.172;2023-04-06T02:32:01;12.80;;;6.00;;
24585;SDS011;12743;52.262;6.172;2023-04-06T02:34:31;12.70;;;5.78;;
24585;SDS011;12743;52.262;6.172;2023-04-06T02:36:58;10.93;;;5.97;;
24585;SDS011;12743;52.262;6.172;2023-04-06T02:39:25;11.60;;;6.20;;
24585;SDS011;12743;52.262;6.172;2023-04-06T02:41:51;14.80;;;6.20;;
24585;SDS011;12743;52.262;6.172;2023-04-06T02:44:21;11.20;;;5.72;;
24585;SDS011;12743;52.262;6.172;2023-04-06T02:46:48;12.38;;;6.30;;
24585;SDS011;12743;52.262;6.172;2023-04-06T02:49:14;13.10;;;6.55;;
24585;SDS011;12743;52.262;6.172;2023-04-06T02:51:42;12.30;;;6.13;;
24585;SDS011;12743;52.262;6.172;2023-04-06T02:54:19;14.43;;;6.63;;
24585;SDS011;12743;52.262;6.172;2023-04-06T02:56:46;13.98;;;6.80;;
24585;SDS011;12743;52.262;6.172;2023-04-06T02:59:13;13.25;;;6.03;;
24585;SDS011;12743;52.262;6.172;2023-04-06T03:01:45;11.88;;;5.82;;
24585;SDS011;12743;52.262;6.172;2023-04-06T03:04:12;15.93;;;6.70;;
24585;SDS011;12743;52.262;6.172;2023-04-06T03:06:39;16.13;;;7.13;;
24585;SDS011;12743;52.262;6.172;2023-04-06T03:09:15;11.93;;;6.40;;
24585;SDS011;12743;52.262;6.172;2023-04-06T03:11:43;14.48;;;7.43;;
24585;SDS011;12743;52.262;6.172;2023-04-06T03:14:10;14.65;;;6.68;;
24585;SDS011;12743;52.262;6.172;2023-04-06T03:16:37;15.18;;;6.50;;
24585;SDS011;12743;52.262;6.172;2023-04-06T03:19:03;12.07;;;6.50;;
24585;SDS011;12743;52.262;6.172;2023-04-06T03:21:33;13.65;;;6.40;;
24585;SDS011;12743;52.262;6.172;2023-04-06T03:24:00;13.40;;;6.65;;
24585;SDS011;12743;52.262;6.172;2023-04-06T03:26:26;13.45;;;6.65;;
24585;SDS011;12743;52.262;6.172;2023-04-06T03:28:53;13.73;;;6.22;;
24585;SDS011;12743;52.262;6.172;2023-04-06T03:31:28;14.23;;;7.20;;
24585;SDS011;12743;52.262;6.172;2023-04-06T03:34:04;12.43;;;6.57;;
24585;SDS011;12743;52.262;6.172;2023-04-06T03:36:33;13.60;;;6.05;;
24585;SDS011;12743;52.262;6.172;2023-04-06T03:39:02;13.75;;;6.18;;
24585;SDS011;12743;52.262;6.172;2023-04-06T03:41:32;13.80;;;6.47;;
24585;SDS011;12743;52.262;6.172;2023-04-06T03:44:18;12.93;;;6.43;;
24585;SDS011;12743;52.262;6.172;2023-04-06T03:46:45;12.23;;;6.95;;
24585;SDS011;12743;52.262;6.172;2023-04-06T03:49:12;14.05;;;6.43;;
24585;SDS011;12743;52.262;6.172;2023-04-06T03:51:42;11.95;;;6.30;;
24585;SDS011;12743;52.262;6.172;2023-04-06T03:54:08;14.20;;;7.00;;
24585;SDS011;12743;52.262;6.172;2023-04-06T03:56:35;13.67;;;6.63;;
24585;SDS011;12743;52.262;6.172;2023-04-06T03:59:02;13.63;;;6.88;;
24585;SDS011;12743;52.262;6.172;2023-04-06T04:01:29;15.07;;;7.03;;
24585;SDS011;12743;52.262;6.172;2023-04-06T04:03:55;13.52;;;6.93;;
24585;SDS011;12743;52.262;6.172;2023-04-06T04:06:22;13.80;;;6.60;;
24585;SDS011;12743;52.262;6.172;2023-04-06T04:08:49;12.60;;;7.00;;
24585;SDS011;12743;52.262;6.172;2023-04-06T04:11:16;14.75;;;7.25;;
24585;SDS011;12743;52.262;6.172;2023-04-06T04:13:45;14.60;;;7.53;;
24585;SDS011;12743;52.262;6.172;2023-04-06T04:16:12;13.63;;;6.60;;
24585;SDS011;12743;52.262;6.172;2023-04-06T04:18:40;16.52;;;6.72;;
24585;SDS011;12743;52.262;6.172;2023-04-06T04:21:09;15.80;;;7.00;;
24585;SDS011;12743;52.262;6.172;2023-04-06T04:23:36;14.60;;;7.05;;
24585;SDS011;12743;52.262;6.172;2023-04-06T04:26:03;15.05;;;7.07;;
24585;SDS011;12743;52.262;6.172;2023-04-06T04:28:29;14.65;;;6.68;;
24585;SDS011;12743;52.262;6.172;2023-04-06T04:30:57;15.63;;;6.72;;
24585;SDS011;12743;52.262;6.172;2023-04-06T04:33:23;18.13;;;6.70;;
24585;SDS011;12743;52.262;6.172;2023-04-06T04:35:52;15.77;;;7.15;;
24585;SDS011;12743;52.262;6.172;2023-04-06T04:38:22;16.02;;;7.97;;
24585;SDS011;12743;52.262;6.172;2023-04-06T04:40:52;15.07;;;7.47;;
24585;SDS011;12743;52.262;6.172;2023-04-06T04:43:18;13.63;;;6.65;;
24585;SDS011;12743;52.262;6.172;2023-04-06T04:45:45;15.60;;;7.93;;
24585;SDS011;12743;52.262;6.172;2023-04-06T04:48:22;16.45;;;7.38;;
24585;SDS011;12743;52.262;6.172;2023-04-06T04:50:53;15.77;;;7.55;;
24585;SDS011;12743;52.262;6.172;2023-04-06T04:53:24;17.17;;;7.95;;
24585;SDS011;12743;52.262;6.172;2023-04-06T04:55:57;15.20;;;7.60;;
24585;SDS011;12743;52.262;6.172;2023-04-06T04:58:25;14.07;;;7.20;;
24585;SDS011;12743;52.262;6.172;2023-04-06T05:00:55;14.10;;;7.07;;
24585;SDS011;12743;52.262;6.172;2023-04-06T05:03:23;16.58;;;7.55;;
24585;SDS011;12743;52.262;6.172;2023-04-06T05:05:57;13.68;;;6.55;;
24585;SDS011;12743;52.262;6.172;2023-04-06T05:08:27;15.70;;;7.32;;
24585;SDS011;12743;52.262;6.172;2023-04-06T05:10:54;15.90;;;7.47;;
24585;SDS011;12743;52.262;6.172;2023-04-06T05:13:21;15.27;;;7.82;;
24585;SDS011;12743;52.262;6.172;2023-04-06T05:15:50;15.32;;;7.93;;
24585;SDS011;12743;52.262;6.172;2023-04-06T05:18:26;15.82;;;7.65;;
24585;SDS011;12743;52.262;6.172;2023-04-06T05:20:54;15.30;;;7.82;;
24585;SDS011;12743;52.262;6.172;2023-04-06T05:23:28;16.30;;;7.20;;
24585;SDS011;12743;52.262;6.172;2023-04-06T05:25:56;15.43;;;7.18;;
24585;SDS011;12743;52.262;6.172;2023-04-06T05:28:22;17.85;;;8.50;;
24585;SDS011;12743;52.262;6.172;2023-04-06T05:30:49;18.45;;;8.02;;
24585;SDS011;12743;52.262;6.172;2023-04-06T05:33:15;18.20;;;8.02;;
24585;SDS011;12743;52.262;6.172;2023-04-06T05:36:01;18.70;;;7.30;;
24585;SDS011;12743;52.262;6.172;2023-04-06T05:38:28;15.82;;;7.00;;
24585;SDS011;12743;52.262;6.172;2023-04-06T05:40:58;15.57;;;7.70;;
24585;SDS011;12743;52.262;6.172;2023-04-06T05:43:29;16.95;;;6.50;;
24585;SDS011;12743;52.262;6.172;2023-04-06T05:45:57;16.67;;;8.02;;
24585;SDS011;12743;52.262;6.172;2023-04-06T05:48:25;15.60;;;7.77;;
24585;SDS011;12743;52.262;6.172;2023-04-06T05:50:52;16.45;;;8.15;;
24585;SDS011;12743;52.262;6.172;2023-04-06T05:53:25;16.67;;;7.45;;
24585;SDS011;12743;52.262;6.172;2023-04-06T05:55:56;16.20;;;8.25;;
24585;SDS011;12743;52.262;6.172;2023-04-06T05:58:24;17.15;;;8.73;;
24585;SDS011;12743;52.262;6.172;2023-04-06T06:00:59;17.73;;;8.43;;
24585;SDS011;12743;52.262;6.172;2023-04-06T06:03:35;17.50;;;8.68;;
24585;SDS011;12743;52.262;6.172;2023-04-06T06:06:02;16.20;;;7.72;;
24585;SDS011;12743;52.262;6.172;2023-04-06T06:08:51;16.67;;;8.10;;
24585;SDS011;12743;52.262;6.172;2023-04-06T06:11:18;16.17;;;8.45;;
24585;SDS011;12743;52.262;6.172;2023-04-06T06:13:47;15.67;;;7.63;;
24585;SDS011;12743;52.262;6.172;2023-04-06T06:16:14;18.58;;;8.55;;
24585;SDS011;12743;52.262;6.172;2023-04-06T06:18:44;17.02;;;8.00;;
24585;SDS011;12743;52.262;6.172;2023-04-06T06:21:12;16.05;;;7.90;;
24585;SDS011;12743;52.262;6.172;2023-04-06T06:23:39;17.42;;;8.52;;
24585;SDS011;12743;52.262;6.172;2023-04-06T06:26:06;15.13;;;8.33;;
24585;SDS011;12743;52.262;6.172;2023-04-06T06:28:32;15.98;;;7.95;;
24585;SDS011;12743;52.262;6.172;2023-04-06T06:30:59;16.10;;;7.95;;
24585;SDS011;12743;52.262;6.172;2023-04-06T06:33:28;16.00;;;7.88;;
24585;SDS011;12743;52.262;6.172;2023-04-06T06:35:56;18.48;;;8.63;;
24585;SDS011;12743;52.262;6.172;2023-04-06T06:38:23;15.77;;;8.13;;
24585;SDS011;12743;52.262;6.172;2023-04-06T06:40:50;13.70;;;7.35;;
24585;SDS011;12743;52.262;6.172;2023-04-06T06:43:17;18.98;;;8.02;;
24585;SDS011;12743;52.262;6.172;2023-04-06T06:45:50;16.80;;;8.10;;
24585;SDS011;12743;52.262;6.172;2023-04-06T06:48:17;16.15;;;7.75;;
24585;SDS011;12743;52.262;6.172;2023-04-06T06:50:43;13.27;;;7.17;;
24585;SDS011;12743;52.262;6.172;2023-04-06T06:53:11;16.38;;;7.40;;
24585;SDS011;12743;52.262;6.172;2023-04-06T06:55:38;15.65;;;7.82;;
24585;SDS011;12743;52.262;6.172;2023-04-06T06:58:05;17.85;;;8.13;;
24585;SDS011;12743;52.262;6.172;2023-04-06T07:00:32;17.30;;;8.05;;
24585;SDS011;12743;52.262;6.172;2023-04-06T07:02:59;15.10;;;8.17;;
24585;SDS011;12743;52.262;6.172;2023-04-06T07:05:25;18.88;;;8.10;;
24585;SDS011;12743;52.262;6.172;2023-04-06T07:07:56;13.82;;;7.60;;
24585;SDS011;12743;52.262;6.172;2023-04-06T07:10:24;19.52;;;8.00;;
24585;SDS011;12743;52.262;6.172;2023-04-06T07:12:51;19.45;;;8.90;;
24585;SDS011;12743;52.262;6.172;2023-04-06T07:15:17;18.67;;;7.73;;
24585;SDS011;12743;52.262;6.172;2023-04-06T07:17:44;16.80;;;9.20;;
24585;SDS011;12743;52.262;6.172;2023-04-06T07:20:12;18.27;;;8.70;;
24585;SDS011;12743;52.262;6.172;2023-04-06T07:22:39;23.58;;;11.55;;
24585;SDS011;12743;52.262;6.172;2023-04-06T07:25:06;23.15;;;11.43;;
24585;SDS011;12743;52.262;6.172;2023-04-06T07:27:33;24.30;;;9.90;;
24585;SDS011;12743;52.262;6.172;2023-04-06T07:30:00;18.52;;;9.30;;
24585;SDS011;12743;52.262;6.172;2023-04-06T07:32:27;15.73;;;7.93;;
24585;SDS011;12743;52.262;6.172;2023-04-06T07:34:54;22.45;;;10.15;;
24585;SDS011;12743;52.262;6.172;2023-04-06T07:37:21;21.55;;;9.50;;
24585;SDS011;12743;52.262;6.172;2023-04-06T07:39:48;19.53;;;8.93;;
24585;SDS011;12743;52.262;6.172;2023-04-06T07:42:15;18.90;;;9.65;;
24585;SDS011;12743;52.262;6.172;2023-04-06T07:44:43;19.52;;;9.02;;
24585;SDS011;12743;52.262;6.172;2023-04-06T07:47:10;20.15;;;9.52;;
24585;SDS011;12743;52.262;6.172;2023-04-06T07:49:36;20.75;;;9.93;;
24585;SDS011;12743;52.262;6.172;2023-04-06T07:52:04;23.80;;;9.73;;
24585;SDS011;12743;52.262;6.172;2023-04-06T07:54:32;21.27;;;9.38;;
24585;SDS011;12743;52.262;6.172;2023-04-06T07:56:58;21.85;;;9.32;;
24585;SDS011;12743;52.262;6.172;2023-04-06T07:59:25;18.90;;;8.85;;
24585;SDS011;12743;52.262;6.172;2023-04-06T08:01:51;20.30;;;9.43;;
24585;SDS011;12743;52.262;6.172;2023-04-06T08:04:20;18.00;;;8.30;;
24585;SDS011;12743;52.262;6.172;2023-04-06T08:06:46;18.23;;;9.63;;
24585;SDS011;12743;52.262;6.172;2023-04-06T08:09:13;19.13;;;7.95;;
24585;SDS011;12743;52.262;6.172;2023-04-06T08:11:39;20.02;;;9.52;;
24585;SDS011;12743;52.262;6.172;2023-04-06T08:14:06;17.00;;;8.50;;
24585;SDS011;12743;52.262;6.172;2023-04-06T08:16:33;21.63;;;10.27;;
24585;SDS011;12743;52.262;6.172;2023-04-06T08:18:59;19.30;;;8.88;;
24585;SDS011;12743;52.262;6.172;2023-04-06T08:21:26;20.77;;;9.55;;
24585;SDS011;12743;52.262;6.172;2023-04-06T08:23:52;19.17;;;9.48;;
24585;SDS011;12743;52.262;6.172;2023-04-06T08:26:19;17.67;;;8.30;;
24585;SDS011;12743;52.262;6.172;2023-04-06T08:28:46;21.70;;;10.33;;
24585;SDS011;12743;52.262;6.172;2023-04-06T08:31:12;18.70;;;9.25;;
24585;SDS011;12743;52.262;6.172;2023-04-06T08:33:39;19.48;;;9.18;;
24585;SDS011;12743;52.262;6.172;2023-04-06T08:36:06;19.30;;;9.40;;
24585;SDS011;12743;52.262;6.172;2023-04-06T08:38:34;19.15;;;9.93;;
24585;SDS011;12743;52.262;6.172;2023-04-06T08:41:06;25.10;;;10.30;;
24585;SDS011;12743;52.262;6.172;2023-04-06T08:43:34;19.70;;;10.27;;
24585;SDS011;12743;52.262;6.172;2023-04-06T08:46:05;22.67;;;10.25;;
24585;SDS011;12743;52.262;6.172;2023-04-06T08:48:32;19.58;;;10.43;;
24585;SDS011;12743;52.262;6.172;2023-04-06T08:50:59;20.73;;;10.20;;
24585;SDS011;12743;52.262;6.172;2023-04-06T08:53:26;21.47;;;10.47;;
24585;SDS011;12743;52.262;6.172;2023-04-06T08:55:52;19.85;;;9.68;;
24585;SDS011;12743;52.262;6.172;2023-04-06T08:58:19;22.63;;;9.82;;
24585;SDS011;12743;52.262;6.172;2023-04-06T09:01:05;23.65;;;10.60;;
24585;SDS011;12743;52.262;6.172;2023-04-06T09:03:35;21.58;;;10.50;;
24585;SDS011;12743;52.262;6.172;2023-04-06T09:06:05;22.03;;;9.57;;
24585;SDS011;12743;52.262;6.172;2023-04-06T09:08:33;20.30;;;10.27;;
24585;SDS011;12743;52.262;6.172;2023-04-06T09:11:01;26.98;;;11.93;;
24585;SDS011;12743;52.262;6.172;2023-04-06T09:13:28;21.80;;;11.68;;
24585;SDS011;12743;52.262;6.172;2023-04-06T09:16:02;18.88;;;9.65;;
24585;SDS011;12743;52.262;6.172;2023-04-06T09:18:30;22.27;;;9.77;;
24585;SDS011;12743;52.262;6.172;2023-04-06T09:21:01;23.85;;;10.65;;
24585;SDS011;12743;52.262;6.172;2023-04-06T09:23:29;23.50;;;9.95;;
24585;SDS011;12743;52.262;6.172;2023-04-06T09:26:11;24.50;;;9.90;;
24585;SDS011;12743;52.262;6.172;2023-04-06T09:31:15;25.47;;;9.80;;
24585;SDS011;12743;52.262;6.172;2023-04-06T09:33:44;24.88;;;10.70;;
24585;SDS011;12743;52.262;6.172;2023-04-06T09:36:12;24.30;;;10.27;;
24585;SDS011;12743;52.262;6.172;2023-04-06T09:38:54;22.20;;;10.98;;
24585;SDS011;12743;52.262;6.172;2023-04-06T09:41:25;19.70;;;11.07;;
24585;SDS011;12743;52.262;6.172;2023-04-06T09:44:06;29.27;;;10.03;;
24585;SDS011;12743;52.262;6.172;2023-04-06T09:46:37;21.10;;;10.75;;
24585;SDS011;12743;52.262;6.172;2023-04-06T09:49:27;24.30;;;10.10;;
24585;SDS011;12743;52.262;6.172;2023-04-06T09:51:55;22.52;;;10.90;;
24585;SDS011;12743;52.262;6.172;2023-04-06T09:54:25;19.05;;;11.02;;
24585;SDS011;12743;52.262;6.172;2023-04-06T09:56:56;19.90;;;9.50;;
24585;SDS011;12743;52.262;6.172;2023-04-06T10:02:18;22.02;;;10.07;;
24585;SDS011;12743;52.262;6.172;2023-04-06T10:05:17;22.85;;;9.88;;
24585;SDS011;12743;52.262;6.172;2023-04-06T10:08:00;17.42;;;9.60;;
24585;SDS011;12743;52.262;6.172;2023-04-06T10:10:31;23.67;;;10.30;;
24585;SDS011;12743;52.262;6.172;2023-04-06T10:12:58;20.55;;;9.70;;
24585;SDS011;12743;52.262;6.172;2023-04-06T10:15:25;20.13;;;10.98;;
24585;SDS011;12743;52.262;6.172;2023-04-06T10:17:53;19.75;;;9.55;;
24585;SDS011;12743;52.262;6.172;2023-04-06T10:20:21;24.65;;;11.73;;
24585;SDS011;12743;52.262;6.172;2023-04-06T10:25:27;22.98;;;10.85;;
24585;SDS011;12743;52.262;6.172;2023-04-06T10:28:01;23.55;;;10.18;;
24585;SDS011;12743;52.262;6.172;2023-04-06T10:30:32;23.13;;;12.38;;
24585;SDS011;12743;52.262;6.172;2023-04-06T10:32:59;24.05;;;11.85;;
24585;SDS011;12743;52.262;6.172;2023-04-06T10:35:38;20.63;;;10.70;;
24585;SDS011;12743;52.262;6.172;2023-04-06T10:38:05;21.25;;;10.57;;
24585;SDS011;12743;52.262;6.172;2023-04-06T10:40:32;20.05;;;10.90;;
24585;SDS011;12743;52.262;6.172;2023-04-06T10:43:18;22.23;;;10.93;;
24585;SDS011;12743;52.262;6.172;2023-04-06T10:45:56;21.08;;;11.77;;
24585;SDS011;12743;52.262;6.172;2023-04-06T10:48:35;21.03;;;11.63;;
24585;SDS011;12743;52.262;6.172;2023-04-06T10:51:10;22.33;;;12.45;;
24585;SDS011;12743;52.262;6.172;2023-04-06T10:53:41;20.45;;;11.15;;
24585;SDS011;12743;52.262;6.172;2023-04-06T10:56:13;22.13;;;12.43;;
24585;SDS011;12743;52.262;6.172;2023-04-06T10:58:47;20.90;;;10.23;;
24585;SDS011;12743;52.262;6.172;2023-04-06T11:01:15;21.63;;;9.93;;
24585;SDS011;12743;52.262;6.172;2023-04-06T11:03:47;20.52;;;11.00;;
24585;SDS011;12743;52.262;6.172;2023-04-06T11:06:33;28.83;;;11.82;;
24585;SDS011;12743;52.262;6.172;2023-04-06T11:09:00;20.95;;;10.82;;
24585;SDS011;12743;52.262;6.172;2023-04-06T11:11:26;21.33;;;10.57;;
24585;SDS011;12743;52.262;6.172;2023-04-06T11:16:27;22.70;;;11.18;;
24585;SDS011;12743;52.262;6.172;2023-04-06T11:18:56;23.58;;;11.13;;
24585;SDS011;12743;52.262;6.172;2023-04-06T11:21:40;25.13;;;13.77;;
24585;SDS011;12743;52.262;6.172;2023-04-06T11:24:10;22.10;;;11.50;;
24585;SDS011;12743;52.262;6.172;2023-04-06T11:26:39;23.57;;;11.57;;
24585;SDS011;12743;52.262;6.172;2023-04-06T11:29:18;25.50;;;11.77;;
24585;SDS011;12743;52.262;6.172;2023-04-06T11:31:47;24.90;;;11.70;;
24585;SDS011;12743;52.262;6.172;2023-04-06T11:34:18;22.02;;;11.23;;
24585;SDS011;12743;52.262;6.172;2023-04-06T11:36:46;23.20;;;12.02;;
24585;SDS011;12743;52.262;6.172;2023-04-06T11:39:18;25.03;;;11.77;;
24585;SDS011;12743;52.262;6.172;2023-04-06T11:41:49;27.27;;;11.70;;
24585;SDS011;12743;52.262;6.172;2023-04-06T11:44:28;23.23;;;11.38;;
24585;SDS011;12743;52.262;6.172;2023-04-06T11:46:59;19.85;;;9.90;;
24585;SDS011;12743;52.262;6.172;2023-04-06T11:49:27;21.27;;;9.73;;
24585;SDS011;12743;52.262;6.172;2023-04-06T11:51:55;21.90;;;9.80;;
24585;SDS011;12743;52.262;6.172;2023-04-06T11:54:33;24.95;;;10.80;;
24585;SDS011;12743;52.262;6.172;2023-04-06T11:57:01;20.50;;;10.30;;
24585;SDS011;12743;52.262;6.172;2023-04-06T11:59:28;20.63;;;9.82;;
24585;SDS011;12743;52.262;6.172;2023-04-06T12:01:56;19.95;;;10.57;;
24585;SDS011;12743;52.262;6.172;2023-04-06T12:04:23;20.73;;;9.93;;
24585;SDS011;12743;52.262;6.172;2023-04-06T12:06:50;21.52;;;9.82;;
24585;SDS011;12743;52.262;6.172;2023-04-06T12:09:17;14.75;;;7.43;;
24585;SDS011;12743;52.262;6.172;2023-04-06T12:11:43;16.90;;;8.73;;
24585;SDS011;12743;52.262;6.172;2023-04-06T12:14:10;15.68;;;7.70;;
24585;SDS011;12743;52.262;6.172;2023-04-06T12:16:37;15.73;;;7.67;;
24585;SDS011;12743;52.262;6.172;2023-04-06T12:19:04;21.60;;;9.35;;
24585;SDS011;12743;52.262;6.172;2023-04-06T12:21:30;18.42;;;9.43;;
24585;SDS011;12743;52.262;6.172;2023-04-06T12:23:58;14.95;;;8.18;;
24585;SDS011;12743;52.262;6.172;2023-04-06T12:26:24;15.85;;;8.70;;
24585;SDS011;12743;52.262;6.172;2023-04-06T12:28:51;17.93;;;9.77;;
24585;SDS011;12743;52.262;6.172;2023-04-06T12:31:19;16.42;;;9.55;;
24585;SDS011;12743;52.262;6.172;2023-04-06T12:33:48;22.65;;;9.15;;
24585;SDS011;12743;52.262;6.172;2023-04-06T12:36:16;19.35;;;9.10;;
24585;SDS011;12743;52.262;6.172;2023-04-06T12:38:46;17.55;;;8.70;;
24585;SDS011;12743;52.262;6.172;2023-04-06T12:41:14;16.00;;;8.80;;
24585;SDS011;12743;52.262;6.172;2023-04-06T12:43:41;16.90;;;9.30;;
24585;SDS011;12743;52.262;6.172;2023-04-06T12:46:08;18.77;;;10.57;;
24585;SDS011;12743;52.262;6.172;2023-04-06T12:48:35;20.10;;;10.60;;
24585;SDS011;12743;52.262;6.172;2023-04-06T12:51:03;21.85;;;9.48;;
24585;SDS011;12743;52.262;6.172;2023-04-06T12:53:31;18.37;;;10.13;;
24585;SDS011;12743;52.262;6.172;2023-04-06T12:55:59;19.30;;;10.82;;
24585;SDS011;12743;52.262;6.172;2023-04-06T12:58:26;19.23;;;9.88;;
24585;SDS011;12743;52.262;6.172;2023-04-06T13:00:54;20.30;;;10.73;;
24585;SDS011;12743;52.262;6.172;2023-04-06T13:03:22;17.00;;;9.93;;
24585;SDS011;12743;52.262;6.172;2023-04-06T13:05:51;20.40;;;10.83;;
24585;SDS011;12743;52.262;6.172;2023-04-06T13:08:18;22.02;;;11.18;;
24585;SDS011;12743;52.262;6.172;2023-04-06T13:10:46;20.63;;;11.57;;
24585;SDS011;12743;52.262;6.172;2023-04-06T13:13:14;18.90;;;10.13;;
24585;SDS011;12743;52.262;6.172;2023-04-06T13:15:41;18.73;;;9.60;;
24585;SDS011;12743;52.262;6.172;2023-04-06T13:18:08;15.40;;;8.17;;
24585;SDS011;12743;52.262;6.172;2023-04-06T13:20:35;16.75;;;7.53;;
24585;SDS011;12743;52.262;6.172;2023-04-06T13:23:01;15.07;;;8.30;;
24585;SDS011;12743;52.262;6.172;2023-04-06T13:25:28;17.67;;;9.98;;
24585;SDS011;12743;52.262;6.172;2023-04-06T13:27:55;16.85;;;8.98;;
24585;SDS011;12743;52.262;6.172;2023-04-06T13:30:22;19.50;;;9.90;;
24585;SDS011;12743;52.262;6.172;2023-04-06T13:32:49;20.00;;;10.43;;
24585;SDS011;12743;52.262;6.172;2023-04-06T13:35:15;16.77;;;8.60;;
24585;SDS011;12743;52.262;6.172;2023-04-06T13:37:43;18.88;;;9.43;;
24585;SDS011;12743;52.262;6.172;2023-04-06T13:40:10;16.30;;;8.73;;
24585;SDS011;12743;52.262;6.172;2023-04-06T13:42:37;13.37;;;7.63;;
24585;SDS011;12743;52.262;6.172;2023-04-06T13:45:07;14.98;;;7.13;;
24585;SDS011;12743;52.262;6.172;2023-04-06T13:47:34;14.85;;;7.57;;
24585;SDS011;12743;52.262;6.172;2023-04-06T13:50:01;14.05;;;6.78;;
24585;SDS011;12743;52.262;6.172;2023-04-06T13:52:27;13.30;;;6.95;;
24585;SDS011;12743;52.262;6.172;2023-04-06T13:54:54;14.37;;;6.70;;
24585;SDS011;12743;52.262;6.172;2023-04-06T13:57:20;14.27;;;7.35;;
24585;SDS011;12743;52.262;6.172;2023-04-06T13:59:47;15.32;;;7.95;;
24585;SDS011;12743;52.262;6.172;2023-04-06T14:02:16;15.35;;;8.20;;
24585;SDS011;12743;52.262;6.172;2023-04-06T14:04:42;14.15;;;7.25;;
24585;SDS011;12743;52.262;6.172;2023-04-06T14:07:09;15.17;;;7.17;;
24585;SDS011;12743;52.262;6.172;2023-04-06T14:09:35;13.38;;;7.57;;
24585;SDS011;12743;52.262;6.172;2023-04-06T14:12:02;13.38;;;7.03;;
24585;SDS011;12743;52.262;6.172;2023-04-06T14:14:28;14.75;;;7.85;;
24585;SDS011;12743;52.262;6.172;2023-04-06T14:16:55;12.07;;;6.30;;
24585;SDS011;12743;52.262;6.172;2023-04-06T14:19:22;14.60;;;6.03;;
24585;SDS011;12743;52.262;6.172;2023-04-06T14:21:48;12.88;;;6.00;;
24585;SDS011;12743;52.262;6.172;2023-04-06T14:24:15;13.88;;;5.90;;
24585;SDS011;12743;52.262;6.172;2023-04-06T14:26:44;12.73;;;6.32;;
24585;SDS011;12743;52.262;6.172;2023-04-06T14:29:10;12.63;;;6.28;;
24585;SDS011;12743;52.262;6.172;2023-04-06T14:31:37;13.10;;;6.73;;
24585;SDS011;12743;52.262;6.172;2023-04-06T14:34:03;14.10;;;6.70;;
24585;SDS011;12743;52.262;6.172;2023-04-06T14:36:31;14.77;;;6.78;;
24585;SDS011;12743;52.262;6.172;2023-04-06T14:39:05;14.20;;;6.60;;
24585;SDS011;12743;52.262;6.172;2023-04-06T14:41:33;14.95;;;7.10;;
24585;SDS011;12743;52.262;6.172;2023-04-06T14:44:00;13.23;;;7.00;;
24585;SDS011;12743;52.262;6.172;2023-04-06T14:46:28;14.82;;;7.13;;
24585;SDS011;12743;52.262;6.172;2023-04-06T14:48:55;13.25;;;7.47;;
24585;SDS011;12743;52.262;6.172;2023-04-06T14:51:25;13.77;;;6.90;;
24585;SDS011;12743;52.262;6.172;2023-04-06T14:53:53;14.27;;;7.28;;